Time;durP1;ratioP1;P1;durP2;ratioP2;P2;SDS_P1;SDS_P2;PMS_P1;PMS_P2;Temp;Humidity;BMP_temperature;BMP_pressure;BME280_temperature;BME280_humidity;BME280_pressure;Samples;Min_cycle;Max_cycle;Signal;HPM_P1;HPM_P2
2023/10/04 00:00:49;;;;;;;;;;;;;;;10.96;100.00;97637.06;5063512;28;19937;-78
2023/10/04 00:03:15;;;;;;;;;;;;;;;10.94;100.00;97649.56;5063442;28;20214;-78
2023/10/04 00:05:42;;;;;;;;;;;;;;;10.91;100.00;97647.31;5065458;28;19938;-78
2023/10/04 00:08:08;;;;;;;;;;;;;;;10.88;100.00;97655.59;5066653;28;19936;-79
2023/10/04 00:10:34;;;;;;;;;;;;;;;10.87;100.00;97657.38;5067695;28;19952;-79
2023/10/04 00:13:00;;;;;;;;;;;;;;;10.86;100.00;97654.97;5067190;28;19942;-79
2023/10/04 00:15:27;;;;;;;;;;;;;;;10.83;100.00;97663.22;5067870;28;19942;-78
2023/10/04 00:17:53;;;;;;;;;;;;;;;10.81;100.00;97659.97;5067090;28;19936;-78
2023/10/04 00:20:19;;;;;;;;;;;;;;;10.76;100.00;97658.72;5067001;28;19941;-78
2023/10/04 00:22:49;;;;;;;;;;;;;;;10.75;100.00;97669.38;5066957;28;19942;-78
2023/10/04 00:25:21;;;;;;;;;;;;;;;10.72;100.00;97667.97;5066926;28;19938;-79
2023/10/04 00:27:48;;;;;;;;;;;;;;;10.71;100.00;97668.16;5066929;28;19937;-79
2023/10/04 00:30:15;;;;;;;;;;;;;;;10.71;100.00;97670.78;5066771;28;20167;-79
2023/10/04 00:32:41;;;;;;;;;;;;;;;10.69;100.00;97657.84;5067567;28;19938;-79
2023/10/04 00:35:19;;;;;;;;;;;;;;;10.68;100.00;97658.84;5066687;28;19949;-79
2023/10/04 00:37:47;;;;;;;;;;;;;;;10.67;100.00;97651.19;5067556;28;19943;-79
2023/10/04 00:40:19;;;;;;;;;;;;;;;10.66;100.00;97660.03;5067195;28;19933;-79
2023/10/04 00:42:47;;;;;;;;;;;;;;;10.65;100.00;97648.72;5067191;28;20131;-79
2023/10/04 00:45:13;;;;;;;;;;;;;;;10.63;100.00;97644.69;5066607;28;19932;-79
2023/10/04 00:47:41;;;;;;;;;;;;;;;10.62;100.00;97645.66;5066372;28;19997;-78
2023/10/04 00:50:16;;;;;;;;;;;;;;;10.60;100.00;97645.03;5066345;28;19958;-79
2023/10/04 00:52:52;;;;;;;;;;;;;;;10.59;100.00;97641.63;5067015;28;19938;-79
2023/10/04 00:55:19;;;;;;;;;;;;;;;10.59;100.00;97636.38;5066908;28;19935;-79
2023/10/04 00:57:49;;;;;;;;;;;;;;;10.60;100.00;97626.69;5066321;28;19937;-79
2023/10/04 01:00:17;;;;;;;;;;;;;;;10.57;100.00;97628.69;5067090;28;19933;-79
2023/10/04 01:02:44;;;;;;;;;;;;;;;10.57;100.00;97620.00;5066333;28;19936;-79
2023/10/04 01:05:11;;;;;;;;;;;;;;;10.57;100.00;97633.94;5066137;28;19931;-79
2023/10/04 01:07:39;;;;;;;;;;;;;;;10.56;100.00;97629.69;5066180;28;19938;-79
2023/10/04 01:10:20;;;;;;;;;;;;;;;10.56;100.00;97624.44;5066009;28;19950;-79
2023/10/04 01:12:47;;;;;;;;;;;;;;;10.55;100.00;97629.88;5066130;28;20101;-79
2023/10/04 01:18:00;;;;;;;;;;;;;;;10.51;100.00;97618.94;5065985;28;19940;-79
2023/10/04 01:20:33;;;;;;;;;;;;;;;10.48;100.00;97616.72;5065897;28;19940;-79
2023/10/04 01:23:06;;;;;;;;;;;;;;;10.48;100.00;97623.78;5065901;28;19977;-78
2023/10/04 01:25:36;;;;;;;;;;;;;;;10.45;100.00;97621.50;5065812;28;19933;-79
2023/10/04 01:28:12;;;;;;;;;;;;;;;10.44;100.00;97619.91;5066297;28;19936;-79
2023/10/04 01:30:41;;;;;;;;;;;;;;;10.43;100.00;97626.13;5066521;28;19950;-79
2023/10/04 01:33:10;;;;;;;;;;;;;;;10.41;100.00;97628.94;5066146;28;19939;-79
2023/10/04 01:35:39;;;;;;;;;;;;;;;10.40;100.00;97623.91;5065627;28;19953;-79
2023/10/04 01:38:06;;;;;;;;;;;;;;;10.36;100.00;97626.88;5065531;28;19940;-79
2023/10/04 01:40:35;;;;;;;;;;;;;;;10.35;100.00;97627.88;5066350;28;19928;-79
2023/10/04 01:43:14;;;;;;;;;;;;;;;10.36;100.00;97631.31;5065501;28;19940;-79
2023/10/04 01:45:43;;;;;;;;;;;;;;;10.33;100.00;97627.25;5064266;28;19936;-78
2023/10/04 01:48:09;;;;;;;;;;;;;;;10.31;100.00;97620.56;5065169;28;19962;-78
2023/10/04 01:50:35;;;;;;;;;;;;;;;10.30;100.00;97624.19;5065793;28;20306;-78
2023/10/04 01:53:01;;;;;;;;;;;;;;;10.27;100.00;97622.72;5066072;28;19940;-79
2023/10/04 01:55:27;;;;;;;;;;;;;;;10.25;100.00;97626.53;5066060;28;19974;-79
2023/10/04 01:57:54;;;;;;;;;;;;;;;10.23;100.00;97623.28;5065216;28;19934;-79
2023/10/04 02:00:22;;;;;;;;;;;;;;;10.21;100.00;97633.97;5065124;28;19945;-79
2023/10/04 02:02:48;;;;;;;;;;;;;;;10.19;100.00;97622.84;5065346;28;19937;-78
2023/10/04 02:05:26;;;;;;;;;;;;;;;10.16;100.00;97617.97;5065050;28;20006;-79
2023/10/04 02:07:53;;;;;;;;;;;;;;;10.11;100.00;97620.34;5065858;28;20111;-78
2023/10/04 02:10:19;;;;;;;;;;;;;;;10.07;100.00;97622.50;5064836;28;19955;-79
2023/10/04 02:12:46;;;;;;;;;;;;;;;10.05;100.00;97628.94;5064927;28;19963;-78
2023/10/04 02:15:14;;;;;;;;;;;;;;;10.03;100.00;97623.88;5064826;28;20133;-79
2023/10/04 02:17:41;;;;;;;;;;;;;;;10.04;100.00;97627.34;5065569;28;20111;-79
2023/10/04 02:20:13;;;;;;;;;;;;;;;10.03;100.00;97629.13;5064792;28;19936;-79
2023/10/04 02:22:39;;;;;;;;;;;;;;;10.03;100.00;97628.31;5065081;28;19947;-79
2023/10/04 02:25:13;;;;;;;;;;;;;;;10.01;100.00;97625.06;5065485;28;19939;-79
2023/10/04 02:27:40;;;;;;;;;;;;;;;9.98;100.00;97639.34;5064151;28;19936;-79
2023/10/04 02:30:13;;;;;;;;;;;;;;;9.97;100.00;97629.84;5065349;28;19956;-79
2023/10/04 02:32:42;;;;;;;;;;;;;;;9.92;100.00;97633.03;5065114;28;19946;-79
2023/10/04 02:35:10;;;;;;;;;;;;;;;9.89;100.00;97638.66;5064715;28;20253;-79
2023/10/04 02:37:36;;;;;;;;;;;;;;;9.87;100.00;97634.56;5065302;28;19938;-79
2023/10/04 02:40:14;;;;;;;;;;;;;;;9.88;100.00;97644.06;5064399;28;19934;-79
2023/10/04 02:42:44;;;;;;;;;;;;;;;9.87;100.00;97635.41;5064717;28;19933;-79
2023/10/04 02:45:18;;;;;;;;;;;;;;;9.87;100.00;97635.41;5064582;28;19937;-79
2023/10/04 02:47:48;;;;;;;;;;;;;;;9.85;100.00;97645.25;5064344;28;20164;-78
2023/10/04 02:50:17;;;;;;;;;;;;;;;9.81;100.00;97649.25;5064217;28;20270;-79
2023/10/04 02:52:44;;;;;;;;;;;;;;;9.74;100.00;97646.53;5064757;28;19943;-79
2023/10/04 02:55:15;;;;;;;;;;;;;;;9.71;100.00;97657.38;5064170;28;19946;-79
2023/10/04 02:57:42;;;;;;;;;;;;;;;9.70;100.00;97647.91;5064480;28;20118;-79
2023/10/04 03:00:12;;;;;;;;;;;;;;;9.70;100.00;97647.06;5064428;28;19934;-79
2023/10/04 03:02:38;;;;;;;;;;;;;;;9.68;100.00;97649.06;5064125;28;19935;-79
2023/10/04 03:05:06;;;;;;;;;;;;;;;9.68;100.00;97651.69;5064031;28;20086;-79
2023/10/04 03:07:32;;;;;;;;;;;;;;;9.65;100.00;97645.00;5064521;28;19935;-79
2023/10/04 03:09:58;;;;;;;;;;;;;;;9.65;100.00;97652.84;5063924;28;19958;-79
2023/10/04 03:12:24;;;;;;;;;;;;;;;9.64;100.00;97647.78;5064005;28;20226;-79
2023/10/04 03:14:50;;;;;;;;;;;;;;;9.64;100.00;97639.94;5063945;28;19938;-78
2023/10/04 03:17:16;;;;;;;;;;;;;;;9.64;100.00;97647.78;5063899;28;19942;-79
2023/10/04 03:19:42;;;;;;;;;;;;;;;9.62;100.00;97639.34;5063939;28;20155;-79
2023/10/04 03:22:10;;;;;;;;;;;;;;;9.60;100.00;97639.50;5064097;28;19937;-79
2023/10/04 03:24:36;;;;;;;;;;;;;;;9.57;100.00;97641.66;5063871;28;19944;-79
2023/10/04 03:27:05;;;;;;;;;;;;;;;9.55;100.00;97653.16;5064616;28;19928;-79
2023/10/04 03:29:31;;;;;;;;;;;;;;;9.51;100.00;97649.28;5063789;28;19943;-78
2023/10/04 03:31:56;;;;;;;;;;;;;;;9.51;100.00;97656.28;5063779;28;19954;-78
2023/10/04 03:34:25;;;;;;;;;;;;;;;9.50;100.00;97652.88;5064488;28;19953;-79
2023/10/04 03:36:51;;;;;;;;;;;;;;;9.48;100.00;97652.22;5063768;28;19934;-78
2023/10/04 03:39:17;;;;;;;;;;;;;;;9.45;100.00;97647.38;5064300;28;19943;-79
2023/10/04 03:41:43;;;;;;;;;;;;;;;9.42;100.00;97636.44;5067525;28;19986;-78
2023/10/04 03:44:09;;;;;;;;;;;;;;;9.40;100.00;97646.28;5068138;28;19978;-79
2023/10/04 03:46:35;;;;;;;;;;;;;;;9.38;100.00;97651.69;5067528;28;19964;-78
2023/10/04 03:49:02;;;;;;;;;;;;;;;9.35;100.00;97644.22;5068483;28;20224;-79
2023/10/04 03:51:29;;;;;;;;;;;;;;;9.31;100.00;97648.19;5067565;28;20240;-79
2023/10/04 03:53:54;;;;;;;;;;;;;;;9.24;100.00;97645.47;5067531;28;19939;-79
2023/10/04 03:56:22;;;;;;;;;;;;;;;9.19;100.00;97647.78;5067419;28;19958;-79
2023/10/04 03:58:48;;;;;;;;;;;;;;;9.15;100.00;97651.75;5067446;28;19941;-78
2023/10/04 04:01:14;;;;;;;;;;;;;;;9.10;100.00;97644.44;5067387;28;19992;-79
2023/10/04 04:03:40;;;;;;;;;;;;;;;9.09;100.00;97655.09;5067856;28;19933;-78
2023/10/04 04:06:07;;;;;;;;;;;;;;;9.10;100.00;97654.91;5067289;28;19938;-79
2023/10/04 04:08:33;;;;;;;;;;;;;;;9.11;100.00;97656.56;5067258;28;20260;-79
2023/10/04 04:10:59;;;;;;;;;;;;;;;9.11;100.00;97666.19;5067968;28;19951;-79
2023/10/04 04:13:25;;;;;;;;;;;;;;;9.11;100.00;97658.34;5067696;28;19928;-78
2023/10/04 04:15:51;;;;;;;;;;;;;;;9.11;100.00;97661.78;5067228;28;20158;-78
2023/10/04 04:18:20;;;;;;;;;;;;;;;9.12;100.00;97660.78;5067094;28;19935;-79
2023/10/04 04:20:46;;;;;;;;;;;;;;;9.10;100.00;97657.53;5067037;28;19944;-79
2023/10/04 04:23:13;;;;;;;;;;;;;;;9.11;100.00;97661.78;5067230;28;19954;-84
2023/10/04 04:25:40;;;;;;;;;;;;;;;9.11;100.00;97648.72;5066973;28;19940;-79
2023/10/04 04:28:07;;;;;;;;;;;;;;;9.11;100.00;97650.50;5066874;28;19939;-78
2023/10/04 04:30:34;;;;;;;;;;;;;;;9.10;100.00;97647.06;5067294;28;20225;-78
2023/10/04 04:33:04;;;;;;;;;;;;;;;9.10;100.00;97652.31;5066812;28;19975;-79
2023/10/04 04:40:38;;;;;;;;;;;;;;;9.09;100.00;97655.94;5066877;28;19940;-79
2023/10/04 04:45:51;;;;;;;;;;;;;;;9.07;100.00;97657.91;5066584;28;19937;-79
2023/10/04 04:48:18;;;;;;;;;;;;;;;9.06;100.00;97663.31;5066375;28;19963;-78
2023/10/04 04:50:44;;;;;;;;;;;;;;;9.05;100.00;97656.44;5066654;28;19954;-78
2023/10/04 04:53:14;;;;;;;;;;;;;;;9.05;100.00;97662.50;5066405;28;19951;-78
2023/10/04 04:55:40;;;;;;;;;;;;;;;9.07;100.00;97663.13;5067195;28;19942;-78
2023/10/04 04:58:06;;;;;;;;;;;;;;;9.07;100.00;97659.69;5066282;28;19938;-79
2023/10/04 05:00:33;;;;;;;;;;;;;;;9.07;100.00;97663.13;5066266;28;19938;-78
2023/10/04 05:03:00;;;;;;;;;;;;;;;9.11;100.00;97663.56;5066200;28;19931;-78
2023/10/04 05:05:29;;;;;;;;;;;;;;;9.12;100.00;97659.97;5066238;28;19935;-78
2023/10/04 05:07:55;;;;;;;;;;;;;;;9.12;100.00;97659.97;5066166;28;19947;-80
2023/10/04 05:10:25;;;;;;;;;;;;;;;9.10;100.00;97670.63;5065978;28;20254;-79
2023/10/04 05:12:55;;;;;;;;;;;;;;;9.10;100.00;97677.66;5065733;28;19965;-78
2023/10/04 05:15:32;;;;;;;;;;;;;;;9.08;100.00;97675.22;5065985;28;19934;-78
2023/10/04 05:18:00;;;;;;;;;;;;;;;9.03;100.00;97667.09;5065594;28;19939;-78
2023/10/04 05:20:27;;;;;;;;;;;;;;;9.00;100.00;97667.44;5065932;28;19934;-78
2023/10/04 05:22:53;;;;;;;;;;;;;;;8.97;100.00;97673.03;5066707;28;20108;-78
2023/10/04 05:25:20;;;;;;;;;;;;;;;8.92;100.00;97670.97;5065774;28;19935;-78
2023/10/04 05:27:49;;;;;;;;;;;;;;;8.91;100.00;97671.13;5066326;28;19936;-78
2023/10/04 05:30:16;;;;;;;;;;;;;;;8.89;100.00;97679.16;5065714;28;19941;-79
2023/10/04 05:32:42;;;;;;;;;;;;;;;8.88;100.00;97676.69;5065835;28;19964;-78
2023/10/04 05:35:12;;;;;;;;;;;;;;;8.87;100.00;97672.47;5065584;28;19953;-79
2023/10/04 05:37:41;;;;;;;;;;;;;;;8.87;100.00;97662.00;5065575;28;19931;-79
2023/10/04 05:40:26;;;;;;;;;;;;;;;8.86;100.00;97676.91;5065541;28;20133;-79
2023/10/04 05:42:53;;;;;;;;;;;;;;;8.83;100.00;97669.38;5066295;28;19950;-79
2023/10/04 05:45:20;;;;;;;;;;;;;;;8.81;100.00;97655.66;5065408;28;19936;-79
2023/10/04 05:47:48;;;;;;;;;;;;;;;8.78;100.00;97668.28;5065202;28;20132;-79
2023/10/04 05:50:17;;;;;;;;;;;;;;;8.78;100.00;97674.34;5065353;28;19938;-78
2023/10/04 05:52:47;;;;;;;;;;;;;;;8.80;100.00;97674.16;5065254;28;19959;-79
2023/10/04 05:55:13;;;;;;;;;;;;;;;8.81;100.00;97673.19;5064171;28;19942;-79
2023/10/04 05:57:39;;;;;;;;;;;;;;;8.83;100.00;97673.81;5065171;28;19935;-79
2023/10/04 06:00:23;;;;;;;;;;;;;;;8.88;100.00;97677.53;5065151;28;19946;-79
2023/10/04 06:02:49;;;;;;;;;;;;;;;9.12;100.00;97678.31;5065065;28;20135;-78
2023/10/04 06:05:16;;;;;;;;;;;;;;;9.45;100.00;97681.41;5065037;28;19927;-79
2023/10/04 06:07:43;;;;;;;;;;;;;;;9.81;100.00;97670.19;5065025;28;20124;-79
2023/10/04 06:10:11;;;;;;;;;;;;;;;10.02;100.00;97668.63;5064981;28;19934;-79
2023/10/04 06:12:40;;;;;;;;;;;;;;;10.15;100.00;97677.44;5064842;28;19960;-79
2023/10/04 06:15:10;;;;;;;;;;;;;;;10.26;100.00;97670.91;5064857;28;19937;-79
2023/10/04 06:17:41;;;;;;;;;;;;;;;10.47;100.00;97685.88;5065653;28;19944;-79
2023/10/04 06:22:54;;;;;;;;;;;;;;;10.96;100.00;97682.50;5065585;28;19945;-78
2023/10/04 06:25:21;;;;;;;;;;;;;;;11.21;100.00;97670.75;5064666;28;20242;-78
2023/10/04 06:27:50;;;;;;;;;;;;;;;11.46;100.00;97677.19;5065141;28;19961;-79
2023/10/04 06:30:23;;;;;;;;;;;;;;;11.72;100.00;97676.53;5064967;28;20217;-79
2023/10/04 06:32:49;;;;;;;;;;;;;;;11.94;100.00;97679.88;5064477;28;20177;-78
2023/10/04 06:35:16;;;;;;;;;;;;;;;12.13;100.00;97682.81;5064996;28;20236;-78
2023/10/04 06:37:42;;;;;;;;;;;;;;;12.21;100.00;97668.66;5064453;28;20240;-79
2023/10/04 06:40:15;;;;;;;;;;;;;;;12.18;100.00;97669.88;5064385;28;19932;-78
2023/10/04 06:42:44;;;;;;;;;;;;;;;12.01;100.00;97673.84;5064380;28;19939;-79
2023/10/04 06:45:12;;;;;;;;;;;;;;;11.71;100.00;97685.41;5064327;28;20103;-79
2023/10/04 06:47:38;;;;;;;;;;;;;;;11.69;100.00;97690.03;5064123;28;20173;-79
2023/10/04 06:50:06;;;;;;;;;;;;;;;11.76;100.00;97704.06;5064221;28;19952;-78
2023/10/04 06:52:32;;;;;;;;;;;;;;;11.87;100.00;97701.88;5064165;28;20240;-78
2023/10/04 06:54:58;;;;;;;;;;;;;;;12.05;100.00;97704.81;5064164;28;19935;-79
2023/10/04 06:57:24;;;;;;;;;;;;;;;12.22;100.00;97712.38;5064558;28;19940;-78
2023/10/04 06:59:50;;;;;;;;;;;;;;;12.37;100.00;97703.31;5064122;28;20221;-78
2023/10/04 07:02:16;;;;;;;;;;;;;;;12.49;100.00;97697.47;5064602;28;19938;-78
2023/10/04 07:04:42;;;;;;;;;;;;;;;12.57;100.00;97694.66;5064568;28;19934;-78
2023/10/04 07:07:08;;;;;;;;;;;;;;;12.67;100.00;97705.59;5064806;28;19934;-78
2023/10/04 07:09:34;;;;;;;;;;;;;;;12.70;100.00;97707.81;5063984;28;20202;-78
2023/10/04 07:11:59;;;;;;;;;;;;;;;12.66;100.00;97700.53;5063923;28;20139;-78
2023/10/04 07:14:25;;;;;;;;;;;;;;;12.69;100.00;97710.69;5063718;28;19957;-78
2023/10/04 07:16:51;;;;;;;;;;;;;;;12.70;100.00;97699.13;5063955;28;19998;-78
2023/10/04 07:19:18;;;;;;;;;;;;;;;12.64;100.00;97698.13;5063905;28;19934;-78
2023/10/04 07:21:43;;;;;;;;;;;;;;;12.53;100.00;97698.69;5063888;28;19952;-78
2023/10/04 07:24:09;;;;;;;;;;;;;;;12.46;100.00;97706.56;5063834;28;19942;-78
2023/10/04 07:26:36;;;;;;;;;;;;;;;12.38;100.00;97715.44;5063840;28;19939;-78
2023/10/04 07:29:02;;;;;;;;;;;;;;;12.35;100.00;97731.66;5063770;28;19937;-80
2023/10/04 07:31:28;;;;;;;;;;;;;;;12.41;100.00;97724.78;5064273;28;19955;-78
2023/10/04 07:33:54;;;;;;;;;;;;;;;12.49;100.00;97721.16;5063705;28;19929;-78
2023/10/04 07:36:20;;;;;;;;;;;;;;;12.56;100.00;97719.38;5064217;28;19934;-78
2023/10/04 07:38:46;;;;;;;;;;;;;;;12.58;100.00;97733.13;5064502;28;19935;-78
2023/10/04 07:41:12;;;;;;;;;;;;;;;12.68;100.00;97740.63;5063686;28;19962;-78
2023/10/04 07:43:37;;;;;;;;;;;;;;;12.68;100.00;97724.84;5063698;28;20228;-79
2023/10/04 07:46:04;;;;;;;;;;;;;;;12.70;100.00;97739.41;5063585;28;19977;-79
2023/10/04 07:48:30;;;;;;;;;;;;;;;12.81;100.00;97738.03;5063508;28;20152;-78
2023/10/04 07:50:55;;;;;;;;;;;;;;;12.82;100.00;97728.31;5064418;28;19938;-78
2023/10/04 07:53:22;;;;;;;;;;;;;;;12.83;100.00;97736.03;5063578;28;20129;-78
2023/10/04 07:55:49;;;;;;;;;;;;;;;12.92;100.00;97732.16;5063788;28;20220;-78
2023/10/04 07:58:15;;;;;;;;;;;;;;;12.98;100.00;97738.47;5062410;28;19942;-78
2023/10/04 08:00:41;;;;;;;;;;;;;;;13.03;100.00;97736.03;5063826;28;20186;-78
2023/10/04 08:03:08;;;;;;;;;;;;;;;13.08;100.00;97732.78;5063444;28;19952;-79
2023/10/04 08:05:35;;;;;;;;;;;;;;;13.12;100.00;97737.47;5063465;28;19938;-78
2023/10/04 08:08:02;;;;;;;;;;;;;;;13.06;100.00;97735.66;5063472;28;19941;-79
2023/10/04 08:10:29;;;;;;;;;;;;;;;12.97;100.00;97734.19;5063425;28;19942;-79
2023/10/04 08:12:56;;;;;;;;;;;;;;;12.91;100.00;97754.22;5063351;28;19954;-78
2023/10/04 08:15:25;;;;;;;;;;;;;;;12.94;100.00;97755.69;5063891;28;19933;-78
2023/10/04 08:17:52;;;;;;;;;;;;;;;13.00;100.00;97739.06;5063462;28;20121;-79
2023/10/04 08:20:19;;;;;;;;;;;;;;;13.07;100.00;97739.88;5063854;28;19935;-79
2023/10/04 08:22:45;;;;;;;;;;;;;;;13.17;100.00;97735.03;5062249;28;20215;-79
2023/10/04 08:25:16;;;;;;;;;;;;;;;13.29;100.00;97734.44;5062169;28;19943;-79
2023/10/04 08:27:42;;;;;;;;;;;;;;;13.38;100.00;97717.44;5066626;28;19944;-79
2023/10/04 08:30:12;;;;;;;;;;;;;;;13.43;100.00;97729.97;5066797;28;19938;-79
2023/10/04 08:32:41;;;;;;;;;;;;;;;13.46;100.00;97735.66;5067085;28;19952;-79
2023/10/04 08:35:28;;;;;;;;;;;;;;;13.45;100.00;97726.13;5067253;28;20123;-79
2023/10/04 08:37:55;;;;;;;;;;;;;;;13.45;100.00;97743.78;5067320;28;19930;-78
2023/10/04 08:40:21;;;;;;;;;;;;;;;13.44;100.00;97737.69;5066628;28;19937;-79
2023/10/04 08:42:47;;;;;;;;;;;;;;;13.52;100.00;97740.13;5067457;28;20101;-79
2023/10/04 08:45:13;;;;;;;;;;;;;;;13.57;100.00;97727.13;5066539;28;19936;-78
2023/10/04 08:47:39;;;;;;;;;;;;;;;13.60;100.00;97736.44;5066372;28;19972;-79
2023/10/04 08:50:11;;;;;;;;;;;;;;;13.60;100.00;97712.72;5065713;28;20884;-79
2023/10/04 08:52:41;;;;;;;;;;;;;;;13.64;100.00;97736.84;5066397;28;19970;-79
2023/10/04 08:55:07;;;;;;;;;;;;;;;13.64;100.00;97718.41;5066426;28;19937;-79
2023/10/04 08:57:39;;;;;;;;;;;;;;;13.65;100.00;97726.09;5066400;28;20123;-78
2023/10/04 09:00:23;;;;;;;;;;;;;;;13.71;100.00;97721.81;5066605;28;19934;-79
2023/10/04 09:02:50;;;;;;;;;;;;;;;13.81;100.00;97716.94;5067098;28;19933;-79
2023/10/04 09:05:23;;;;;;;;;;;;;;;13.88;100.00;97709.84;5066147;28;19943;-78
2023/10/04 09:07:53;;;;;;;;;;;;;;;13.95;100.00;97707.97;5066216;28;19948;-79
2023/10/04 09:10:19;;;;;;;;;;;;;;;14.02;100.00;97719.28;5066128;28;19937;-79
2023/10/04 09:12:48;;;;;;;;;;;;;;;14.10;100.00;97696.34;5065964;28;19993;-79
2023/10/04 09:15:14;;;;;;;;;;;;;;;14.13;100.00;97699.41;5066027;28;20126;-79
2023/10/04 09:17:46;;;;;;;;;;;;;;;14.16;100.00;97696.31;5066525;28;19929;-79
2023/10/04 09:20:15;;;;;;;;;;;;;;;14.19;100.00;97705.63;5066210;28;20234;-79
2023/10/04 09:22:40;;;;;;;;;;;;;;;14.23;100.00;97703.41;5066438;28;19944;-79
2023/10/04 09:25:06;;;;;;;;;;;;;;;14.25;100.00;97670.50;5065866;28;19936;-79
2023/10/04 09:27:32;;;;;;;;;;;;;;;14.29;100.00;97679.63;5066282;28;19933;-78
2023/10/04 09:29:59;;;;;;;;;;;;;;;14.37;100.00;97689.94;5065852;28;20023;-79
2023/10/04 09:32:35;;;;;;;;;;;;;;;14.41;100.00;97672.66;5065578;28;19949;-79
2023/10/04 09:35:01;;;;;;;;;;;;;;;14.44;100.00;97681.97;5065880;28;19952;-79
2023/10/04 09:37:27;;;;;;;;;;;;;;;14.39;100.00;97647.50;5066082;28;19936;-79
2023/10/04 09:40:06;;;;;;;;;;;;;;;14.42;100.00;97670.81;5064430;28;19946;-79
2023/10/04 09:42:43;;;;;;;;;;;;;;;14.50;100.00;97678.47;5066310;28;19960;-79
2023/10/04 09:45:09;;;;;;;;;;;;;;;14.58;100.00;97661.63;5065978;28;19938;-80
2023/10/04 09:47:38;;;;;;;;;;;;;;;14.64;100.00;97625.66;5065239;28;19972;-79
2023/10/04 09:50:18;;;;;;;;;;;;;;;14.71;100.00;97658.88;5065319;28;20131;-80
2023/10/04 09:52:44;;;;;;;;;;;;;;;14.79;100.00;97611.09;5065327;28;19950;-79
2023/10/04 09:55:13;;;;;;;;;;;;;;;14.83;100.00;97622.03;5065301;28;19956;-79
2023/10/04 09:57:41;;;;;;;;;;;;;;;14.87;100.00;97601.28;5064921;28;19941;-79
2023/10/04 10:00:17;;;;;;;;;;;;;;;14.97;100.00;97641.19;5065121;28;19935;-79
2023/10/04 10:03:03;;;;;;;;;;;;;;;15.05;100.00;97627.72;5065727;28;19939;-79
2023/10/04 10:05:31;;;;;;;;;;;;;;;15.11;100.00;97626.84;5065509;28;19934;-79
2023/10/04 10:08:04;;;;;;;;;;;;;;;15.09;100.00;97631.53;5065042;28;19944;-79
2023/10/04 10:10:37;;;;;;;;;;;;;;;15.15;100.00;97622.75;5065805;28;19941;-79
2023/10/04 10:13:07;;;;;;;;;;;;;;;15.23;96.31;97585.47;5064813;28;20013;-80
2023/10/04 10:15:34;;;;;;;;;;;;;;;15.28;100.00;97613.88;5063812;28;19934;-79
2023/10/04 10:18:00;;;;;;;;;;;;;;;15.25;96.96;97595.03;5064824;28;19937;-80
2023/10/04 10:20:26;;;;;;;;;;;;;;;15.20;99.10;97617.63;5065266;28;19943;-79
2023/10/04 10:22:58;;;;;;;;;;;;;;;15.22;98.20;97606.81;5065551;28;20238;-80
2023/10/04 10:25:25;;;;;;;;;;;;;;;15.26;100.00;97626.50;5063590;28;20163;-79
2023/10/04 10:28:01;;;;;;;;;;;;;;;15.34;99.21;97612.22;5064634;28;19941;-79
2023/10/04 10:30:28;;;;;;;;;;;;;;;15.50;96.98;97610.84;5064563;28;19937;-80
2023/10/04 10:32:58;;;;;;;;;;;;;;;15.67;98.06;97611.03;5065257;28;20084;-80
2023/10/04 10:35:43;;;;;;;;;;;;;;;15.80;94.74;97587.09;5064430;28;19955;-80
2023/10/04 10:38:28;;;;;;;;;;;;;;;15.94;93.33;97580.59;5064457;28;19935;-80
2023/10/04 10:40:53;;;;;;;;;;;;;;;16.09;90.20;97558.22;5064405;28;19936;-79
2023/10/04 10:43:19;;;;;;;;;;;;;;;16.10;95.10;97594.22;5064364;28;19939;-79
2023/10/04 10:45:46;;;;;;;;;;;;;;;16.04;92.56;97577.41;5064391;28;20009;-79
2023/10/04 10:48:12;;;;;;;;;;;;;;;15.95;92.50;97581.41;5063889;28;19978;-79
2023/10/04 10:50:40;;;;;;;;;;;;;;;15.95;92.45;97579.56;5064070;28;19940;-80
2023/10/04 10:53:08;;;;;;;;;;;;;;;16.11;93.56;97574.69;5064092;28;19955;-80
2023/10/04 10:55:35;;;;;;;;;;;;;;;16.27;86.90;97517.63;5064103;28;19955;-80
2023/10/04 10:58:01;;;;;;;;;;;;;;;16.40;92.74;97565.09;5064912;28;19930;-81
2023/10/04 11:00:32;;;;;;;;;;;;;;;16.42;88.70;97540.00;5064065;28;19939;-80
2023/10/04 11:02:58;;;;;;;;;;;;;;;16.44;88.09;97537.09;5063549;28;20236;-79
2023/10/04 11:05:25;;;;;;;;;;;;;;;16.61;86.13;97516.88;5063997;28;20141;-80
2023/10/04 11:07:52;;;;;;;;;;;;;;;16.72;87.60;97531.16;5064051;28;19934;-80
2023/10/04 11:10:20;;;;;;;;;;;;;;;16.74;84.60;97504.44;5064442;28;20123;-79
2023/10/04 11:12:47;;;;;;;;;;;;;;;16.73;89.89;97545.19;5063918;28;20119;-80
2023/10/04 11:15:17;;;;;;;;;;;;;;;16.72;86.68;97525.84;5063421;28;19941;-80
2023/10/04 11:17:43;;;;;;;;;;;;;;;16.67;87.28;97525.72;5065008;28;20077;-80
2023/10/04 11:20:11;;;;;;;;;;;;;;;16.76;85.00;97505.81;5063006;28;20311;-80
2023/10/04 11:22:40;;;;;;;;;;;;;;;16.92;86.32;97512.28;5063832;28;19946;-80
2023/10/04 11:25:06;;;;;;;;;;;;;;;17.07;87.08;97561.34;5064353;28;20111;-80
2023/10/04 11:27:33;;;;;;;;;;;;;;;17.23;84.50;97564.09;5063794;28;19943;-79
2023/10/04 11:29:59;;;;;;;;;;;;;;;17.39;82.65;97561.78;5063787;28;20100;-78
2023/10/04 11:32:28;;;;;;;;;;;;;;;17.61;85.69;97581.31;5063695;28;19951;-79
2023/10/04 11:34:56;;;;;;;;;;;;;;;17.85;83.84;97565.38;5063662;28;20113;-79
2023/10/04 11:37:27;;;;;;;;;;;;;;;18.12;78.01;97547.00;5064191;28;19942;-79
2023/10/04 11:39:54;;;;;;;;;;;;;;;18.39;77.96;97549.81;5063371;28;19967;-78
2023/10/04 11:42:22;;;;;;;;;;;;;;;18.52;83.59;97563.84;5064419;28;20086;-78
2023/10/04 11:44:48;;;;;;;;;;;;;;;18.33;85.42;97565.94;5063701;28;19937;-78
2023/10/04 11:47:15;;;;;;;;;;;;;;;17.99;83.51;97564.00;5062781;28;20275;-78
2023/10/04 11:49:53;;;;;;;;;;;;;;;17.72;83.81;97577.00;5063604;28;20131;-79
2023/10/04 11:52:21;;;;;;;;;;;;;;;17.68;81.26;97557.31;5064312;28;20268;-78
2023/10/04 11:54:47;;;;;;;;;;;;;;;17.82;82.11;97563.97;5063548;28;19939;-78
2023/10/04 11:57:37;;;;;;;;;;;;;;;18.02;81.66;97555.59;5062416;28;19936;-78
2023/10/04 12:00:16;;;;;;;;;;;;;;;18.02;79.18;97550.28;5064092;28;19945;-79
2023/10/04 12:02:42;;;;;;;;;;;;;;;17.84;79.97;97545.97;5065936;28;19936;-79
2023/10/04 12:05:08;;;;;;;;;;;;;;;17.64;81.05;97545.56;5067345;28;20133;-78
2023/10/04 12:07:34;;;;;;;;;;;;;;;17.46;82.06;97549.19;5067969;28;19932;-78
2023/10/04 12:10:00;;;;;;;;;;;;;;;17.32;80.37;97545.19;5067180;28;20097;-78
2023/10/04 12:12:26;;;;;;;;;;;;;;;17.23;81.47;97540.22;5067921;28;20257;-78
2023/10/04 12:14:52;;;;;;;;;;;;;;;17.13;82.00;97540.00;5067129;28;20113;-78
2023/10/04 12:17:17;;;;;;;;;;;;;;;17.10;85.80;97552.94;5067598;28;19934;-77
2023/10/04 12:19:43;;;;;;;;;;;;;;;17.13;84.47;97545.31;5065985;28;19946;-79
2023/10/04 12:22:09;;;;;;;;;;;;;;;17.16;81.46;97534.25;5067066;28;19936;-78
2023/10/04 12:24:39;;;;;;;;;;;;;;;17.06;72.78;97496.94;5067029;28;19936;-78
2023/10/04 12:27:08;;;;;;;;;;;;;;;17.02;76.12;97523.09;5066944;28;19960;-78
2023/10/04 12:29:37;;;;;;;;;;;;;;;16.99;73.77;97507.66;5066924;28;19953;-78
2023/10/04 12:32:05;;;;;;;;;;;;;;;17.11;82.33;97531.50;5066789;28;19943;-78
2023/10/04 12:34:31;;;;;;;;;;;;;;;17.38;81.07;97529.13;5065581;28;19953;-77
2023/10/04 12:36:57;;;;;;;;;;;;;;;17.65;80.58;97531.25;5065576;28;19945;-77
2023/10/04 12:39:23;;;;;;;;;;;;;;;17.82;70.39;97513.56;5066756;28;19945;-78
2023/10/04 12:41:49;;;;;;;;;;;;;;;17.98;73.87;97514.63;5067145;28;19936;-77
2023/10/04 12:44:17;;;;;;;;;;;;;;;18.15;74.76;97509.34;5066635;28;19943;-78
2023/10/04 12:46:43;;;;;;;;;;;;;;;18.26;72.65;97515.63;5066464;28;20246;-78
2023/10/04 12:49:09;;;;;;;;;;;;;;;18.21;72.98;97518.22;5067379;28;20255;-78
2023/10/04 12:51:35;;;;;;;;;;;;;;;18.11;77.00;97518.84;5066512;28;20009;-77
2023/10/04 12:54:03;;;;;;;;;;;;;;;18.00;74.09;97498.47;5066421;28;19957;-77
2023/10/04 12:56:29;;;;;;;;;;;;;;;17.90;76.80;97514.22;5066406;28;19941;-78
2023/10/04 12:58:55;;;;;;;;;;;;;;;17.87;73.54;97496.09;5066323;28;20148;-78